UAL2005 KSFO-PHKO
Flight info
| Callsign | UAL2005 |
|---|---|
| Flight time | 4h 55m |
| Altitude | 40000 |
| Route | GNNRR3 CINNY ALANN GITLE DIALO R576 DENNS UPP VECKI9 |
| Aircraft | B772/H-SDE2E3FGHIJ5LORVWXY/LB1D1 |
Departure
| Time | 2026-04-21 23:13 |
|---|---|
| Airport | San Francisco International Airport (KSFO) |
Arrival
| Time | 2026-04-22 04:08 |
|---|---|
| Airport | Ellison Onizuka Kona International Airport at Keāhole (PHKO) |
| Time | Latitude | Longitude | Altitude | Speed | Heading |
|---|---|---|---|---|---|
| 2026-04-21 22:27 | 37.62108 | -122.38846 | 27 ft | 0 kts | 207° |
| 2026-04-21 22:59 | 37.62122 | -122.38836 | 24 ft | 4 kts | 207° |
| 2026-04-21 22:59 | 37.62146 | -122.38820 | 25 ft | 4 kts | 207° |
| 2026-04-21 22:59 | 37.62169 | -122.38805 | 25 ft | 2 kts | 207° |
| 2026-04-21 22:59 | 37.62190 | -122.38794 | 26 ft | 4 kts | 181° |
| 2026-04-21 23:00 | 37.62213 | -122.38803 | 26 ft | 4 kts | 135° |
| 2026-04-21 23:00 | 37.62228 | -122.38828 | 26 ft | 4 kts | 117° |
| 2026-04-21 23:00 | 37.62240 | -122.38858 | 25 ft | 4 kts | 117° |
| 2026-04-21 23:00 | 37.62253 | -122.38888 | 24 ft | 4 kts | 117° |
| 2026-04-21 23:01 | 37.62261 | -122.38909 | 25 ft | 0 kts | 117° |
| 2026-04-21 23:03 | 37.62257 | -122.38899 | 24 ft | 4 kts | 118° |
| 2026-04-21 23:04 | 37.62241 | -122.38861 | 25 ft | 5 kts | 118° |
| 2026-04-21 23:04 | 37.62224 | -122.38821 | 25 ft | 5 kts | 118° |
| 2026-04-21 23:04 | 37.62205 | -122.38775 | 26 ft | 9 kts | 118° |
| 2026-04-21 23:04 | 37.62167 | -122.38686 | 25 ft | 12 kts | 118° |
| 2026-04-21 23:05 | 37.62129 | -122.38593 | 26 ft | 12 kts | 117° |
| 2026-04-21 23:05 | 37.62090 | -122.38500 | 26 ft | 12 kts | 118° |
| 2026-04-21 23:05 | 37.62051 | -122.38407 | 25 ft | 12 kts | 118° |
| 2026-04-21 23:05 | 37.62012 | -122.38315 | 26 ft | 12 kts | 118° |
| 2026-04-21 23:06 | 37.61973 | -122.38222 | 26 ft | 12 kts | 117° |
| 2026-04-21 23:06 | 37.61934 | -122.38129 | 26 ft | 12 kts | 118° |
| 2026-04-21 23:06 | 37.61896 | -122.38037 | 26 ft | 12 kts | 118° |
| 2026-04-21 23:06 | 37.61857 | -122.37944 | 26 ft | 12 kts | 117° |
| 2026-04-21 23:07 | 37.61823 | -122.37849 | 26 ft | 12 kts | 112° |
| 2026-04-21 23:07 | 37.61792 | -122.37751 | 26 ft | 12 kts | 111° |
| 2026-04-21 23:07 | 37.61762 | -122.37654 | 26 ft | 12 kts | 111° |
| 2026-04-21 23:07 | 37.61732 | -122.37556 | 26 ft | 12 kts | 112° |
| 2026-04-21 23:08 | 37.61697 | -122.37460 | 26 ft | 12 kts | 117° |
| 2026-04-21 23:08 | 37.61659 | -122.37369 | 26 ft | 12 kts | 118° |
| 2026-04-21 23:08 | 37.61620 | -122.37276 | 25 ft | 12 kts | 118° |
| 2026-04-21 23:08 | 37.61581 | -122.37184 | 26 ft | 12 kts | 118° |
| 2026-04-21 23:09 | 37.61541 | -122.37088 | 26 ft | 14 kts | 117° |
| 2026-04-21 23:09 | 37.61489 | -122.36966 | 26 ft | 16 kts | 121° |
| 2026-04-21 23:09 | 37.61418 | -122.36858 | 26 ft | 16 kts | 133° |
| 2026-04-21 23:09 | 37.61351 | -122.36747 | 26 ft | 16 kts | 119° |
| 2026-04-21 23:10 | 37.61298 | -122.36624 | 25 ft | 16 kts | 118° |
| 2026-04-21 23:10 | 37.61247 | -122.36500 | 26 ft | 16 kts | 118° |
| 2026-04-21 23:10 | 37.61195 | -122.36376 | 26 ft | 16 kts | 118° |
| 2026-04-21 23:10 | 37.61142 | -122.36253 | 26 ft | 16 kts | 118° |
| 2026-04-21 23:11 | 37.61090 | -122.36129 | 26 ft | 15 kts | 117° |
| 2026-04-21 23:11 | 37.61058 | -122.36045 | 26 ft | 10 kts | 109° |
| 2026-04-21 23:11 | 37.61060 | -122.35957 | 26 ft | 10 kts | 69° |
| 2026-04-21 23:11 | 37.61111 | -122.35898 | 26 ft | 10 kts | 30° |
| 2026-04-21 23:12 | 37.61176 | -122.35879 | 26 ft | 10 kts | 340° |
| 2026-04-21 23:12 | 37.61231 | -122.35981 | 26 ft | 25 kts | 297° |
| 2026-04-21 23:12 | 37.61396 | -122.36374 | 26 ft | 84 kts | 298° |
| 2026-04-21 23:12 | 37.61780 | -122.37286 | 55 ft | 145 kts | 292° |
| 2026-04-21 23:13 | 37.62288 | -122.38414 | 639 ft | 150 kts | 294° |
| 2026-04-21 23:13 | 37.62779 | -122.39591 | 1431 ft | 151 kts | 295° |
| 2026-04-21 23:13 | 37.63283 | -122.40796 | 1972 ft | 165 kts | 294° |
| 2026-04-21 23:13 | 37.63859 | -122.42142 | 2202 ft | 184 kts | 295° |
| 2026-04-21 23:14 | 37.64507 | -122.43637 | 2414 ft | 205 kts | 295° |
| 2026-04-21 23:14 | 37.65239 | -122.45309 | 2592 ft | 230 kts | 296° |
| 2026-04-21 23:14 | 37.66041 | -122.47115 | 3126 ft | 241 kts | 296° |
| 2026-04-21 23:14 | 37.66747 | -122.49018 | 3624 ft | 244 kts | 280° |
| 2026-04-21 23:15 | 37.66649 | -122.51145 | 4184 ft | 248 kts | 250° |
| 2026-04-21 23:15 | 37.65801 | -122.53045 | 4878 ft | 250 kts | 233° |
| 2026-04-21 23:15 | 37.64709 | -122.54776 | 5523 ft | 255 kts | 232° |
| 2026-04-21 23:15 | 37.63589 | -122.56516 | 6256 ft | 256 kts | 232° |
| 2026-04-21 23:16 | 37.62458 | -122.58264 | 6956 ft | 257 kts | 231° |
| 2026-04-21 23:16 | 37.61322 | -122.60015 | 7639 ft | 260 kts | 231° |
| 2026-04-21 23:16 | 37.60172 | -122.61790 | 8322 ft | 262 kts | 231° |
| 2026-04-21 23:16 | 37.59022 | -122.63567 | 9037 ft | 263 kts | 231° |
| 2026-04-21 23:17 | 37.57858 | -122.65367 | 9809 ft | 266 kts | 231° |
| 2026-04-21 23:17 | 37.56679 | -122.67195 | 10403 ft | 276 kts | 231° |
| 2026-04-21 23:17 | 37.55412 | -122.69160 | 10568 ft | 302 kts | 231° |
| 2026-04-21 23:17 | 37.54040 | -122.71289 | 10998 ft | 320 kts | 231° |
| 2026-04-21 23:18 | 37.52629 | -122.73476 | 11790 ft | 330 kts | 231° |
| 2026-04-21 23:18 | 37.51164 | -122.75747 | 12830 ft | 336 kts | 231° |
| 2026-04-21 23:18 | 37.49683 | -122.78041 | 13915 ft | 339 kts | 231° |
| 2026-04-21 23:18 | 37.48192 | -122.80350 | 14794 ft | 343 kts | 231° |
| 2026-04-21 23:19 | 37.46674 | -122.82700 | 15618 ft | 347 kts | 231° |
| 2026-04-21 23:19 | 37.45137 | -122.85081 | 16450 ft | 352 kts | 231° |
| 2026-04-21 23:19 | 37.43584 | -122.87485 | 17276 ft | 356 kts | 231° |
| 2026-04-21 23:19 | 37.42014 | -122.89913 | 18097 ft | 360 kts | 231° |
| 2026-04-21 23:20 | 37.40420 | -122.92374 | 18829 ft | 364 kts | 232° |
| 2026-04-21 23:20 | 37.38814 | -122.94855 | 19555 ft | 367 kts | 232° |
| 2026-04-21 23:20 | 37.37198 | -122.97349 | 20309 ft | 369 kts | 233° |
| 2026-04-21 23:20 | 37.35575 | -122.99852 | 21029 ft | 371 kts | 233° |
| 2026-04-21 23:21 | 37.33936 | -123.02378 | 21725 ft | 374 kts | 233° |
| 2026-04-21 23:21 | 37.32280 | -123.04928 | 22443 ft | 378 kts | 234° |
| 2026-04-21 23:21 | 37.30611 | -123.07496 | 23158 ft | 381 kts | 234° |
| 2026-04-21 23:21 | 37.28948 | -123.10054 | 23830 ft | 384 kts | 234° |
| 2026-04-21 23:22 | 37.27228 | -123.12695 | 24448 ft | 387 kts | 235° |
| 2026-04-21 23:22 | 37.25544 | -123.15279 | 25051 ft | 389 kts | 235° |
| 2026-04-21 23:22 | 37.23822 | -123.17916 | 25676 ft | 390 kts | 237° |
| 2026-04-21 23:22 | 37.22094 | -123.20562 | 26273 ft | 392 kts | 237° |
| 2026-04-21 23:23 | 37.20358 | -123.23223 | 26796 ft | 396 kts | 237° |
| 2026-04-21 23:23 | 37.18605 | -123.25908 | 27281 ft | 399 kts | 237° |
| 2026-04-21 23:23 | 37.16838 | -123.28611 | 27801 ft | 402 kts | 237° |
| 2026-04-21 23:23 | 37.15055 | -123.31335 | 28293 ft | 405 kts | 238° |
| 2026-04-21 23:24 | 37.13272 | -123.34050 | 28965 ft | 402 kts | 239° |
| 2026-04-21 23:24 | 37.11496 | -123.36753 | 29478 ft | 403 kts | 239° |
| 2026-04-21 23:24 | 37.09700 | -123.39492 | 29831 ft | 408 kts | 239° |
| 2026-04-21 23:24 | 37.07893 | -123.42249 | 30168 ft | 412 kts | 239° |
| 2026-04-21 23:25 | 37.06085 | -123.45000 | 30509 ft | 415 kts | 239° |
| 2026-04-21 23:25 | 37.04247 | -123.47793 | 30849 ft | 417 kts | 238° |
| 2026-04-21 23:25 | 37.02394 | -123.50605 | 31153 ft | 419 kts | 238° |
| 2026-04-21 23:25 | 37.00532 | -123.53431 | 31397 ft | 423 kts | 238° |
| 2026-04-21 23:26 | 36.98654 | -123.56276 | 31640 ft | 425 kts | 238° |
| 2026-04-21 23:26 | 36.96765 | -123.59137 | 31902 ft | 427 kts | 238° |
| 2026-04-21 23:26 | 36.94867 | -123.62008 | 32163 ft | 429 kts | 238° |
| 2026-04-21 23:26 | 36.92960 | -123.64888 | 32473 ft | 430 kts | 237° |
| 2026-04-21 23:27 | 36.91057 | -123.67759 | 32848 ft | 428 kts | 237° |
| 2026-04-21 23:27 | 36.89158 | -123.70621 | 33234 ft | 426 kts | 238° |
| 2026-04-21 23:27 | 36.87267 | -123.73468 | 33630 ft | 425 kts | 238° |
| 2026-04-21 23:27 | 36.85401 | -123.76280 | 33964 ft | 425 kts | 238° |
| 2026-04-21 23:28 | 36.83507 | -123.79131 | 34257 ft | 426 kts | 237° |
| 2026-04-21 23:28 | 36.81615 | -123.81979 | 34490 ft | 427 kts | 237° |
| 2026-04-21 23:28 | 36.79697 | -123.84864 | 34740 ft | 427 kts | 237° |
| 2026-04-21 23:28 | 36.77796 | -123.87719 | 34992 ft | 428 kts | 237° |
| 2026-04-21 23:29 | 36.75913 | -123.90544 | 35245 ft | 428 kts | 237° |
| 2026-04-21 23:29 | 36.74009 | -123.93394 | 35614 ft | 425 kts | 237° |
| 2026-04-21 23:29 | 36.72120 | -123.96221 | 35873 ft | 424 kts | 237° |
| 2026-04-21 23:29 | 36.70232 | -123.99045 | 36173 ft | 424 kts | 237° |
| 2026-04-21 23:30 | 36.68344 | -124.01870 | 36366 ft | 425 kts | 237° |
| 2026-04-21 23:30 | 36.66450 | -124.04703 | 36592 ft | 426 kts | 236° |
| 2026-04-21 23:30 | 36.64547 | -124.07544 | 36810 ft | 426 kts | 236° |
| 2026-04-21 23:30 | 36.62642 | -124.10386 | 37039 ft | 427 kts | 236° |
| 2026-04-21 23:31 | 36.60734 | -124.13228 | 37256 ft | 427 kts | 236° |
| 2026-04-21 23:31 | 36.59475 | -124.15104 | 37399 ft | 427 kts | 236° |
| 2026-04-21 23:31 | 36.56944 | -124.18869 | 37685 ft | 428 kts | 236° |
| 2026-04-21 23:31 | 36.55033 | -124.21709 | 37874 ft | 428 kts | 236° |
| 2026-04-21 23:32 | 36.53120 | -124.24550 | 38108 ft | 428 kts | 236° |
| 2026-04-21 23:32 | 36.51204 | -124.27392 | 38336 ft | 428 kts | 235° |
| 2026-04-21 23:32 | 36.49935 | -124.29273 | 38457 ft | 428 kts | 235° |
| 2026-04-21 23:32 | 36.48021 | -124.32110 | 38652 ft | 429 kts | 235° |
| 2026-04-21 23:33 | 36.46078 | -124.34987 | 38817 ft | 429 kts | 235° |
| 2026-04-21 23:33 | 36.44184 | -124.37788 | 38957 ft | 429 kts | 235° |
| 2026-04-21 23:33 | 36.42261 | -124.40631 | 39098 ft | 430 kts | 235° |
| 2026-04-21 23:33 | 36.40335 | -124.43476 | 39238 ft | 430 kts | 235° |
| 2026-04-21 23:34 | 36.38403 | -124.46327 | 39375 ft | 431 kts | 235° |
| 2026-04-21 23:34 | 36.36478 | -124.49164 | 39512 ft | 431 kts | 235° |
| 2026-04-21 23:34 | 36.34550 | -124.52002 | 39720 ft | 428 kts | 235° |
| 2026-04-21 23:34 | 36.32631 | -124.54827 | 39861 ft | 429 kts | 235° |
| 2026-04-21 23:35 | 36.28771 | -124.60504 | 39992 ft | 432 kts | 235° |
| 2026-04-21 23:35 | 36.24892 | -124.66197 | 40053 ft | 432 kts | 234° |
| 2026-04-21 23:36 | 36.21021 | -124.71870 | 40056 ft | 430 kts | 234° |
| 2026-04-21 23:36 | 36.17249 | -124.77604 | 40059 ft | 426 kts | 240° |
| 2026-04-21 23:37 | 36.14181 | -124.83818 | 40067 ft | 423 kts | 244° |
| 2026-04-21 23:37 | 36.11245 | -124.90077 | 40066 ft | 423 kts | 243° |
| 2026-04-21 23:38 | 36.08238 | -124.96347 | 40072 ft | 424 kts | 243° |
| 2026-04-21 23:38 | 36.05186 | -125.02600 | 40061 ft | 425 kts | 243° |
| 2026-04-21 23:39 | 36.02113 | -125.08850 | 40073 ft | 425 kts | 243° |
| 2026-04-21 23:39 | 35.99033 | -125.15099 | 40077 ft | 426 kts | 243° |
| 2026-04-21 23:40 | 35.95955 | -125.21338 | 40076 ft | 426 kts | 243° |
| 2026-04-21 23:40 | 35.92866 | -125.27588 | 40068 ft | 426 kts | 243° |
| 2026-04-21 23:41 | 35.89797 | -125.33786 | 40078 ft | 425 kts | 243° |
| 2026-04-21 23:41 | 35.86706 | -125.40018 | 40082 ft | 425 kts | 243° |
| 2026-04-21 23:42 | 35.83616 | -125.46237 | 40067 ft | 425 kts | 243° |
| 2026-04-21 23:42 | 35.80529 | -125.52437 | 40067 ft | 424 kts | 243° |
| 2026-04-21 23:43 | 35.77444 | -125.58623 | 40083 ft | 423 kts | 243° |
| 2026-04-21 23:43 | 35.74360 | -125.64797 | 40086 ft | 423 kts | 243° |
| 2026-04-21 23:44 | 35.71277 | -125.70957 | 40086 ft | 422 kts | 243° |
| 2026-04-21 23:44 | 35.68209 | -125.77076 | 40079 ft | 422 kts | 243° |
| 2026-04-21 23:45 | 35.63577 | -125.86299 | 40092 ft | 422 kts | 243° |
| 2026-04-21 23:46 | 35.60486 | -125.92439 | 40096 ft | 422 kts | 243° |
| 2026-04-21 23:46 | 35.57491 | -125.98639 | 40096 ft | 421 kts | 245° |
| 2026-04-21 23:47 | 35.54678 | -126.04946 | 40091 ft | 421 kts | 246° |
| 2026-04-21 23:47 | 35.51866 | -126.11264 | 40099 ft | 421 kts | 245° |
| 2026-04-21 23:48 | 35.49030 | -126.17563 | 40101 ft | 422 kts | 245° |
| 2026-04-21 23:48 | 35.46177 | -126.23854 | 40099 ft | 422 kts | 245° |
| 2026-04-21 23:49 | 35.43332 | -126.30103 | 40092 ft | 422 kts | 245° |
| 2026-04-21 23:49 | 35.40470 | -126.36377 | 40102 ft | 421 kts | 245° |
| 2026-04-21 23:50 | 35.37599 | -126.42659 | 40098 ft | 421 kts | 245° |
| 2026-04-21 23:50 | 35.34731 | -126.48925 | 40104 ft | 421 kts | 245° |
| 2026-04-21 23:51 | 35.31859 | -126.55190 | 40091 ft | 421 kts | 245° |
| 2026-04-21 23:51 | 35.29008 | -126.61395 | 40104 ft | 421 kts | 245° |
| 2026-04-21 23:52 | 35.26132 | -126.67642 | 40105 ft | 421 kts | 245° |
| 2026-04-21 23:52 | 35.23258 | -126.73876 | 40106 ft | 421 kts | 245° |
| 2026-04-21 23:53 | 35.20382 | -126.80102 | 40105 ft | 420 kts | 245° |
| 2026-04-21 23:53 | 35.17501 | -126.86329 | 40112 ft | 420 kts | 245° |
| 2026-04-21 23:54 | 35.14632 | -126.92517 | 40107 ft | 420 kts | 245° |
| 2026-04-21 23:54 | 35.11749 | -126.98726 | 40110 ft | 420 kts | 245° |
| 2026-04-21 23:55 | 35.08863 | -127.04928 | 40108 ft | 420 kts | 245° |
| 2026-04-21 23:55 | 35.05977 | -127.11119 | 40078 ft | 419 kts | 245° |
| 2026-04-21 23:56 | 35.03092 | -127.17297 | 40107 ft | 418 kts | 245° |
| 2026-04-21 23:56 | 35.00211 | -127.23455 | 40111 ft | 417 kts | 245° |
| 2026-04-21 23:57 | 34.97349 | -127.29562 | 40111 ft | 416 kts | 245° |
| 2026-04-21 23:57 | 34.94473 | -127.35689 | 40124 ft | 416 kts | 245° |
| 2026-04-21 23:58 | 34.91593 | -127.41814 | 40122 ft | 416 kts | 245° |
| 2026-04-21 23:58 | 34.88708 | -127.47939 | 40105 ft | 416 kts | 246° |
| 2026-04-21 23:59 | 34.85825 | -127.54048 | 40120 ft | 416 kts | 246° |
| 2026-04-21 23:59 | 34.82939 | -127.60152 | 40126 ft | 416 kts | 246° |
| 2026-04-22 00:00 | 34.80046 | -127.66262 | 40126 ft | 416 kts | 246° |
| 2026-04-22 00:00 | 34.77170 | -127.72324 | 40112 ft | 416 kts | 246° |
| 2026-04-22 00:01 | 34.74272 | -127.78421 | 40129 ft | 416 kts | 246° |
| 2026-04-22 00:01 | 34.71374 | -127.84506 | 40128 ft | 416 kts | 246° |
| 2026-04-22 00:02 | 34.68470 | -127.90596 | 40126 ft | 416 kts | 246° |
| 2026-04-22 00:02 | 34.65568 | -127.96671 | 40115 ft | 415 kts | 246° |
| 2026-04-22 00:03 | 34.62664 | -128.02739 | 40125 ft | 415 kts | 246° |
| 2026-04-22 00:03 | 34.59782 | -128.08750 | 40133 ft | 415 kts | 246° |
| 2026-04-22 00:04 | 34.56869 | -128.14816 | 40135 ft | 415 kts | 246° |
| 2026-04-22 00:04 | 34.53960 | -128.20864 | 40125 ft | 414 kts | 246° |
| 2026-04-22 00:05 | 34.51054 | -128.26892 | 40132 ft | 414 kts | 246° |
| 2026-04-22 00:05 | 34.48160 | -128.32889 | 40138 ft | 414 kts | 246° |
| 2026-04-22 00:06 | 34.45231 | -128.38946 | 40136 ft | 414 kts | 246° |
| 2026-04-22 00:06 | 34.42335 | -128.44925 | 40141 ft | 414 kts | 246° |
| 2026-04-22 00:07 | 34.39419 | -128.50936 | 40140 ft | 414 kts | 246° |
| 2026-04-22 00:07 | 34.36495 | -128.56951 | 40142 ft | 414 kts | 246° |
| 2026-04-22 00:08 | 34.33565 | -128.62969 | 40140 ft | 414 kts | 246° |
| 2026-04-22 00:08 | 34.30640 | -128.68966 | 40138 ft | 413 kts | 246° |
| 2026-04-22 00:09 | 34.27716 | -128.74951 | 40144 ft | 413 kts | 246° |
| 2026-04-22 00:09 | 34.24808 | -128.80895 | 40147 ft | 413 kts | 246° |
| 2026-04-22 00:10 | 34.21883 | -128.86862 | 40148 ft | 412 kts | 246° |
| 2026-04-22 00:10 | 34.18957 | -128.92821 | 40120 ft | 411 kts | 245° |
| 2026-04-22 00:11 | 34.16036 | -128.98759 | 40146 ft | 411 kts | 245° |
| 2026-04-22 00:11 | 34.13114 | -129.04691 | 40150 ft | 410 kts | 245° |
| 2026-04-22 00:12 | 34.10191 | -129.10617 | 40151 ft | 411 kts | 245° |
| 2026-04-22 00:12 | 34.07285 | -129.16497 | 40147 ft | 411 kts | 245° |
| 2026-04-22 00:13 | 34.04353 | -129.22418 | 40155 ft | 411 kts | 245° |
| 2026-04-22 00:13 | 34.01418 | -129.28338 | 40152 ft | 411 kts | 245° |
| 2026-04-22 00:14 | 33.98486 | -129.34240 | 40151 ft | 411 kts | 245° |
| 2026-04-22 00:14 | 33.95561 | -129.40117 | 40140 ft | 410 kts | 245° |
| 2026-04-22 00:15 | 33.92625 | -129.46008 | 40149 ft | 410 kts | 245° |
| 2026-04-22 00:15 | 33.89689 | -129.51892 | 40161 ft | 410 kts | 245° |
| 2026-04-22 00:16 | 33.86746 | -129.57777 | 40162 ft | 410 kts | 245° |
| 2026-04-22 00:16 | 33.83803 | -129.63652 | 40151 ft | 409 kts | 245° |
| 2026-04-22 00:17 | 33.80862 | -129.69515 | 40153 ft | 409 kts | 245° |
| 2026-04-22 00:17 | 33.77920 | -129.75371 | 40156 ft | 409 kts | 245° |
| 2026-04-22 00:18 | 33.74998 | -129.81178 | 40151 ft | 409 kts | 244° |
| 2026-04-22 00:18 | 33.72060 | -129.87006 | 40158 ft | 408 kts | 244° |
| 2026-04-22 00:19 | 33.69107 | -129.92855 | 40158 ft | 408 kts | 244° |
| 2026-04-22 00:19 | 33.66659 | -129.97697 | 40160 ft | 408 kts | 244° |
| 2026-04-22 00:20 | 33.63708 | -130.03524 | 40144 ft | 408 kts | 244° |
| 2026-04-22 00:20 | 33.60752 | -130.09351 | 40157 ft | 408 kts | 244° |
| 2026-04-22 00:21 | 33.57798 | -130.15165 | 40159 ft | 408 kts | 244° |
| 2026-04-22 00:21 | 33.54842 | -130.20974 | 40166 ft | 408 kts | 244° |
| 2026-04-22 00:22 | 33.51883 | -130.26780 | 40155 ft | 408 kts | 244° |
| 2026-04-22 00:22 | 33.48922 | -130.32581 | 40164 ft | 408 kts | 244° |
| 2026-04-22 00:23 | 33.45974 | -130.38345 | 40166 ft | 408 kts | 244° |
| 2026-04-22 00:23 | 33.43007 | -130.44140 | 40166 ft | 408 kts | 244° |
| 2026-04-22 00:24 | 33.40033 | -130.49939 | 40158 ft | 408 kts | 243° |
| 2026-04-22 00:24 | 33.37055 | -130.55735 | 40168 ft | 408 kts | 243° |
| 2026-04-22 00:25 | 33.34081 | -130.61514 | 40169 ft | 408 kts | 243° |
| 2026-04-22 00:25 | 33.31121 | -130.67258 | 40155 ft | 408 kts | 243° |
| 2026-04-22 00:26 | 33.28145 | -130.73023 | 40164 ft | 407 kts | 243° |
| 2026-04-22 00:26 | 33.25169 | -130.78779 | 40170 ft | 407 kts | 243° |
| 2026-04-22 00:27 | 33.22187 | -130.84538 | 40172 ft | 407 kts | 243° |
| 2026-04-22 00:27 | 33.19206 | -130.90286 | 40170 ft | 407 kts | 243° |
| 2026-04-22 00:28 | 33.16224 | -130.96028 | 40166 ft | 407 kts | 243° |
| 2026-04-22 00:28 | 33.13254 | -131.01737 | 40174 ft | 407 kts | 243° |
| 2026-04-22 00:29 | 33.10267 | -131.07469 | 40175 ft | 407 kts | 242° |
| 2026-04-22 00:29 | 33.07277 | -131.13200 | 40168 ft | 407 kts | 242° |
| 2026-04-22 00:30 | 33.04279 | -131.18935 | 40170 ft | 407 kts | 242° |
| 2026-04-22 00:30 | 33.01280 | -131.24664 | 40175 ft | 407 kts | 242° |
| 2026-04-22 00:31 | 32.98280 | -131.30386 | 40178 ft | 407 kts | 242° |
| 2026-04-22 00:31 | 32.95289 | -131.36081 | 40165 ft | 407 kts | 242° |
| 2026-04-22 00:32 | 32.92280 | -131.41803 | 40176 ft | 407 kts | 242° |
| 2026-04-22 00:32 | 32.89270 | -131.47517 | 40174 ft | 407 kts | 242° |
| 2026-04-22 00:33 | 32.86254 | -131.53233 | 40177 ft | 408 kts | 242° |
| 2026-04-22 00:33 | 32.83238 | -131.58942 | 40178 ft | 408 kts | 242° |
| 2026-04-22 00:34 | 32.80232 | -131.64622 | 40170 ft | 408 kts | 242° |
| 2026-04-22 00:34 | 32.77210 | -131.70325 | 40182 ft | 408 kts | 242° |
| 2026-04-22 00:35 | 32.74185 | -131.76024 | 40191 ft | 408 kts | 242° |
| 2026-04-22 00:35 | 32.71154 | -131.81726 | 40181 ft | 408 kts | 241° |
| 2026-04-22 00:36 | 32.68126 | -131.87413 | 40180 ft | 408 kts | 241° |
| 2026-04-22 00:36 | 32.65090 | -131.93105 | 40181 ft | 408 kts | 241° |
| 2026-04-22 00:37 | 32.62049 | -131.98801 | 40181 ft | 408 kts | 241° |
| 2026-04-22 00:37 | 32.59010 | -132.04482 | 40174 ft | 408 kts | 241° |
| 2026-04-22 00:38 | 32.55982 | -132.10136 | 40177 ft | 408 kts | 241° |
| 2026-04-22 00:38 | 32.52929 | -132.15826 | 40177 ft | 409 kts | 241° |
| 2026-04-22 00:39 | 32.49870 | -132.21519 | 40171 ft | 409 kts | 240° |
| 2026-04-22 00:39 | 32.46810 | -132.27205 | 40182 ft | 409 kts | 240° |
| 2026-04-22 00:40 | 32.43768 | -132.32851 | 40179 ft | 409 kts | 240° |
| 2026-04-22 00:40 | 32.40700 | -132.38534 | 40178 ft | 409 kts | 240° |
| 2026-04-22 00:41 | 32.37633 | -132.44209 | 40167 ft | 409 kts | 240° |
| 2026-04-22 00:41 | 32.34559 | -132.49887 | 40178 ft | 409 kts | 240° |
| 2026-04-22 00:42 | 32.31502 | -132.55527 | 40181 ft | 410 kts | 240° |
| 2026-04-22 00:42 | 32.28422 | -132.61198 | 40181 ft | 410 kts | 240° |
| 2026-04-22 00:43 | 32.25335 | -132.66876 | 40183 ft | 410 kts | 240° |
| 2026-04-22 00:43 | 32.22244 | -132.72554 | 40187 ft | 411 kts | 240° |
| 2026-04-22 00:44 | 32.19151 | -132.78226 | 40188 ft | 411 kts | 240° |
| 2026-04-22 00:44 | 32.16085 | -132.83923 | 40188 ft | 410 kts | 242° |
| 2026-04-22 00:45 | 32.13259 | -132.89762 | 40189 ft | 410 kts | 243° |
| 2026-04-22 00:45 | 32.10464 | -132.95580 | 40186 ft | 410 kts | 243° |
| 2026-04-22 00:46 | 32.07642 | -133.01436 | 40191 ft | 410 kts | 243° |
| 2026-04-22 00:46 | 32.04816 | -133.07277 | 40185 ft | 410 kts | 242° |
| 2026-04-22 00:47 | 32.01982 | -133.13122 | 40192 ft | 410 kts | 242° |
| 2026-04-22 00:47 | 31.99165 | -133.18920 | 40191 ft | 411 kts | 242° |
| 2026-04-22 00:48 | 31.96320 | -133.24765 | 40182 ft | 411 kts | 242° |
| 2026-04-22 00:48 | 31.93471 | -133.30612 | 40191 ft | 411 kts | 242° |
| 2026-04-22 00:49 | 31.90621 | -133.36452 | 40193 ft | 412 kts | 242° |
| 2026-04-22 00:49 | 31.87766 | -133.42291 | 40194 ft | 412 kts | 242° |
| 2026-04-22 00:50 | 31.84903 | -133.48138 | 40190 ft | 412 kts | 242° |
| 2026-04-22 00:50 | 31.82055 | -133.53946 | 40196 ft | 412 kts | 242° |
| 2026-04-22 00:51 | 31.79184 | -133.59793 | 40197 ft | 413 kts | 242° |
| 2026-04-22 00:51 | 31.76308 | -133.65640 | 40194 ft | 413 kts | 242° |
| 2026-04-22 00:52 | 31.73430 | -133.71481 | 40200 ft | 413 kts | 242° |
| 2026-04-22 00:52 | 31.70544 | -133.77329 | 40196 ft | 413 kts | 242° |
| 2026-04-22 00:53 | 31.67657 | -133.83172 | 40196 ft | 414 kts | 242° |
| 2026-04-22 00:53 | 31.64765 | -133.89016 | 40197 ft | 414 kts | 242° |
| 2026-04-22 00:54 | 31.61888 | -133.94820 | 40198 ft | 414 kts | 242° |
| 2026-04-22 00:54 | 31.58983 | -134.00669 | 40195 ft | 415 kts | 242° |
| 2026-04-22 00:55 | 31.56078 | -134.06513 | 40197 ft | 415 kts | 241° |
| 2026-04-22 00:55 | 31.51703 | -134.15294 | 40202 ft | 415 kts | 241° |
| 2026-04-22 00:56 | 31.48785 | -134.21141 | 40200 ft | 416 kts | 241° |
| 2026-04-22 00:56 | 31.45877 | -134.26956 | 40203 ft | 416 kts | 241° |
| 2026-04-22 00:57 | 31.42929 | -134.32845 | 40201 ft | 417 kts | 241° |
| 2026-04-22 00:57 | 31.40011 | -134.38664 | 40200 ft | 417 kts | 241° |
| 2026-04-22 00:58 | 31.37073 | -134.44514 | 40192 ft | 417 kts | 241° |
| 2026-04-22 00:58 | 31.34129 | -134.50367 | 40195 ft | 417 kts | 241° |
| 2026-04-22 00:59 | 31.31185 | -134.56212 | 40195 ft | 417 kts | 241° |
| 2026-04-22 00:59 | 31.28237 | -134.62054 | 40191 ft | 417 kts | 241° |
| 2026-04-22 01:00 | 31.25284 | -134.67898 | 40197 ft | 417 kts | 240° |
| 2026-04-22 01:00 | 31.22350 | -134.73697 | 40196 ft | 417 kts | 240° |
| 2026-04-22 01:01 | 31.19399 | -134.79521 | 40193 ft | 416 kts | 240° |
| 2026-04-22 01:01 | 31.16449 | -134.85332 | 40196 ft | 416 kts | 240° |
| 2026-04-22 01:02 | 31.13493 | -134.91145 | 40196 ft | 415 kts | 240° |
| 2026-04-22 01:02 | 31.10543 | -134.96940 | 40193 ft | 415 kts | 240° |
| 2026-04-22 01:03 | 31.07594 | -135.02723 | 40190 ft | 414 kts | 240° |
| 2026-04-22 01:03 | 31.04648 | -135.08494 | 40194 ft | 414 kts | 240° |
| 2026-04-22 01:04 | 31.01719 | -135.14220 | 40195 ft | 413 kts | 240° |
| 2026-04-22 01:04 | 30.98774 | -135.19971 | 40190 ft | 413 kts | 240° |
| 2026-04-22 01:05 | 30.95832 | -135.25706 | 40197 ft | 412 kts | 240° |
| 2026-04-22 01:05 | 30.92892 | -135.31429 | 40198 ft | 411 kts | 240° |
| 2026-04-22 01:06 | 30.89949 | -135.37151 | 40199 ft | 411 kts | 240° |
| 2026-04-22 01:06 | 30.87004 | -135.42868 | 40197 ft | 411 kts | 240° |
| 2026-04-22 01:07 | 30.84063 | -135.48567 | 40196 ft | 410 kts | 240° |
| 2026-04-22 01:07 | 30.81619 | -135.53298 | 40200 ft | 410 kts | 240° |
| 2026-04-22 01:08 | 30.78680 | -135.58979 | 40205 ft | 410 kts | 240° |
| 2026-04-22 01:08 | 30.75253 | -135.65593 | 40200 ft | 410 kts | 240° |
| 2026-04-22 01:09 | 30.72784 | -135.70351 | 40200 ft | 410 kts | 240° |
| 2026-04-22 01:09 | 30.69840 | -135.76017 | 40201 ft | 409 kts | 240° |
| 2026-04-22 01:10 | 30.66907 | -135.81656 | 40199 ft | 410 kts | 239° |
| 2026-04-22 01:10 | 30.63936 | -135.87355 | 40200 ft | 409 kts | 240° |
| 2026-04-22 01:11 | 30.60985 | -135.93011 | 40196 ft | 409 kts | 239° |
| 2026-04-22 01:11 | 30.58064 | -135.98600 | 40200 ft | 408 kts | 239° |
| 2026-04-22 01:12 | 30.55112 | -136.04241 | 40187 ft | 409 kts | 239° |
| 2026-04-22 01:12 | 30.52158 | -136.09879 | 40203 ft | 407 kts | 239° |
| 2026-04-22 01:13 | 30.49210 | -136.15495 | 40199 ft | 407 kts | 239° |
| 2026-04-22 01:13 | 30.46265 | -136.21099 | 40200 ft | 408 kts | 239° |
| 2026-04-22 01:14 | 30.43303 | -136.26725 | 40182 ft | 409 kts | 239° |
| 2026-04-22 01:14 | 30.40344 | -136.32339 | 40191 ft | 407 kts | 239° |
| 2026-04-22 01:15 | 30.37417 | -136.37885 | 40210 ft | 405 kts | 239° |
| 2026-04-22 01:15 | 30.34470 | -136.43461 | 40201 ft | 406 kts | 239° |
| 2026-04-22 01:16 | 30.31519 | -136.49037 | 40202 ft | 407 kts | 239° |
| 2026-04-22 01:16 | 30.28553 | -136.54632 | 40202 ft | 408 kts | 239° |
| 2026-04-22 01:17 | 30.25572 | -136.60248 | 40199 ft | 411 kts | 239° |
| 2026-04-22 01:17 | 30.22589 | -136.65860 | 40206 ft | 413 kts | 239° |
| 2026-04-22 01:18 | 30.19572 | -136.71528 | 40205 ft | 414 kts | 239° |
| 2026-04-22 01:18 | 30.16559 | -136.77180 | 40198 ft | 412 kts | 239° |
| 2026-04-22 01:19 | 30.13550 | -136.82817 | 40202 ft | 411 kts | 239° |
| 2026-04-22 01:19 | 30.10552 | -136.88425 | 40200 ft | 410 kts | 239° |
| 2026-04-22 01:20 | 30.07559 | -136.94016 | 40199 ft | 407 kts | 239° |
| 2026-04-22 01:20 | 30.04595 | -136.99546 | 40198 ft | 404 kts | 239° |
| 2026-04-22 01:21 | 30.01663 | -137.05009 | 40197 ft | 402 kts | 239° |
| 2026-04-22 01:21 | 29.98716 | -137.10490 | 40201 ft | 401 kts | 239° |
| 2026-04-22 01:22 | 29.95776 | -137.15954 | 40194 ft | 400 kts | 239° |
| 2026-04-22 01:22 | 29.92843 | -137.21395 | 40197 ft | 399 kts | 239° |
| 2026-04-22 01:23 | 29.89905 | -137.26839 | 40203 ft | 399 kts | 239° |
| 2026-04-22 01:23 | 29.86970 | -137.32271 | 40203 ft | 400 kts | 239° |
| 2026-04-22 01:24 | 29.84018 | -137.37725 | 40194 ft | 401 kts | 238° |
| 2026-04-22 01:24 | 29.81080 | -137.43148 | 40199 ft | 402 kts | 238° |
| 2026-04-22 01:25 | 29.78108 | -137.48625 | 40204 ft | 404 kts | 238° |
| 2026-04-22 01:25 | 29.75127 | -137.54111 | 40202 ft | 405 kts | 238° |
| 2026-04-22 01:26 | 29.72137 | -137.59606 | 40198 ft | 405 kts | 238° |
| 2026-04-22 01:26 | 29.69142 | -137.65104 | 40201 ft | 405 kts | 238° |
| 2026-04-22 01:27 | 29.66148 | -137.70592 | 40201 ft | 405 kts | 238° |
| 2026-04-22 01:27 | 29.63169 | -137.76044 | 40203 ft | 405 kts | 238° |
| 2026-04-22 01:28 | 29.60169 | -137.81529 | 40208 ft | 405 kts | 238° |
| 2026-04-22 01:28 | 29.57169 | -137.87006 | 40196 ft | 404 kts | 238° |
| 2026-04-22 01:29 | 29.54169 | -137.92475 | 40201 ft | 403 kts | 238° |
| 2026-04-22 01:29 | 29.51177 | -137.97922 | 40201 ft | 402 kts | 238° |
| 2026-04-22 01:30 | 29.48203 | -138.03330 | 40209 ft | 403 kts | 238° |
| 2026-04-22 01:30 | 29.45204 | -138.08775 | 40200 ft | 404 kts | 238° |
| 2026-04-22 01:31 | 29.42197 | -138.14229 | 40200 ft | 404 kts | 238° |
| 2026-04-22 01:31 | 29.39190 | -138.19674 | 40202 ft | 403 kts | 238° |
| 2026-04-22 01:32 | 29.36186 | -138.25109 | 40206 ft | 405 kts | 238° |
| 2026-04-22 01:32 | 29.33181 | -138.30536 | 40196 ft | 405 kts | 237° |
| 2026-04-22 01:33 | 29.30161 | -138.35983 | 40198 ft | 404 kts | 237° |
| 2026-04-22 01:33 | 29.27139 | -138.41427 | 40203 ft | 403 kts | 237° |
| 2026-04-22 01:34 | 29.24117 | -138.46865 | 40201 ft | 405 kts | 237° |
| 2026-04-22 01:34 | 29.21101 | -138.52284 | 40194 ft | 406 kts | 237° |
| 2026-04-22 01:35 | 29.18064 | -138.57734 | 40198 ft | 406 kts | 237° |
| 2026-04-22 01:35 | 29.15025 | -138.63179 | 40200 ft | 405 kts | 237° |
| 2026-04-22 01:36 | 29.11991 | -138.68609 | 40192 ft | 406 kts | 237° |
| 2026-04-22 01:36 | 29.08948 | -138.74049 | 40198 ft | 406 kts | 237° |
| 2026-04-22 01:37 | 29.05895 | -138.79498 | 40196 ft | 407 kts | 237° |
| 2026-04-22 01:37 | 29.02831 | -138.84960 | 40196 ft | 408 kts | 237° |
| 2026-04-22 01:38 | 28.99765 | -138.90419 | 40196 ft | 408 kts | 237° |
| 2026-04-22 01:38 | 28.96711 | -138.95848 | 40195 ft | 408 kts | 237° |
| 2026-04-22 01:39 | 28.93638 | -139.01305 | 40190 ft | 407 kts | 237° |
| 2026-04-22 01:39 | 28.90579 | -139.06729 | 40195 ft | 406 kts | 237° |
| 2026-04-22 01:40 | 28.87523 | -139.12143 | 40203 ft | 406 kts | 237° |
| 2026-04-22 01:40 | 28.84448 | -139.17582 | 40196 ft | 408 kts | 237° |
| 2026-04-22 01:41 | 28.81362 | -139.23034 | 40178 ft | 409 kts | 237° |
| 2026-04-22 01:41 | 28.78298 | -139.28441 | 40189 ft | 407 kts | 237° |
| 2026-04-22 01:42 | 28.75220 | -139.33867 | 40191 ft | 407 kts | 237° |
| 2026-04-22 01:42 | 28.72138 | -139.39289 | 40189 ft | 408 kts | 237° |
| 2026-04-22 01:43 | 28.69349 | -139.44927 | 40196 ft | 410 kts | 244° |
| 2026-04-22 01:43 | 28.67160 | -139.50934 | 40190 ft | 410 kts | 245° |
| 2026-04-22 01:44 | 28.64970 | -139.56925 | 40183 ft | 410 kts | 245° |
| 2026-04-22 01:44 | 28.62779 | -139.62886 | 40194 ft | 411 kts | 245° |
| 2026-04-22 01:45 | 28.60567 | -139.68890 | 40188 ft | 411 kts | 245° |
| 2026-04-22 01:45 | 28.58353 | -139.74885 | 40203 ft | 411 kts | 245° |
| 2026-04-22 01:46 | 28.56121 | -139.80918 | 40189 ft | 414 kts | 245° |
| 2026-04-22 01:46 | 28.53877 | -139.86979 | 40192 ft | 415 kts | 245° |
| 2026-04-22 01:47 | 28.51632 | -139.93031 | 40187 ft | 415 kts | 245° |
| 2026-04-22 01:47 | 28.49399 | -139.99042 | 40187 ft | 416 kts | 245° |
| 2026-04-22 01:48 | 28.47130 | -140.05138 | 40190 ft | 419 kts | 245° |
| 2026-04-22 01:48 | 28.44849 | -140.11256 | 40186 ft | 420 kts | 245° |
| 2026-04-22 01:49 | 28.42562 | -140.17382 | 40185 ft | 420 kts | 245° |
| 2026-04-22 01:49 | 28.40292 | -140.23451 | 40183 ft | 420 kts | 245° |
| 2026-04-22 01:50 | 28.38003 | -140.29562 | 40187 ft | 421 kts | 245° |
| 2026-04-22 01:50 | 28.35700 | -140.35701 | 40188 ft | 422 kts | 245° |
| 2026-04-22 01:51 | 28.33394 | -140.41836 | 40177 ft | 422 kts | 245° |
| 2026-04-22 01:51 | 28.31082 | -140.47979 | 40189 ft | 423 kts | 245° |
| 2026-04-22 01:52 | 28.28776 | -140.54095 | 40184 ft | 424 kts | 245° |
| 2026-04-22 01:52 | 28.26446 | -140.60265 | 40185 ft | 425 kts | 245° |
| 2026-04-22 01:53 | 28.24113 | -140.66433 | 40191 ft | 427 kts | 246° |
| 2026-04-22 01:53 | 28.21754 | -140.72660 | 40179 ft | 431 kts | 245° |
| 2026-04-22 01:54 | 28.19385 | -140.78901 | 40184 ft | 431 kts | 245° |
| 2026-04-22 01:54 | 28.17413 | -140.84090 | 40185 ft | 430 kts | 245° |
| 2026-04-22 01:55 | 28.15045 | -140.90313 | 40179 ft | 431 kts | 246° |
| 2026-04-22 01:55 | 28.12659 | -140.96570 | 40188 ft | 433 kts | 245° |
| 2026-04-22 01:56 | 28.10275 | -141.02811 | 40186 ft | 435 kts | 245° |
| 2026-04-22 01:56 | 28.07867 | -141.09108 | 40183 ft | 435 kts | 245° |
| 2026-04-22 01:57 | 28.05464 | -141.15380 | 40181 ft | 434 kts | 245° |
| 2026-04-22 01:57 | 28.03062 | -141.21639 | 40182 ft | 432 kts | 245° |
| 2026-04-22 01:58 | 28.00666 | -141.27872 | 40180 ft | 431 kts | 245° |
| 2026-04-22 01:58 | 27.98270 | -141.34097 | 40184 ft | 431 kts | 245° |
| 2026-04-22 01:59 | 27.95873 | -141.40311 | 40182 ft | 431 kts | 245° |
| 2026-04-22 01:59 | 27.93486 | -141.46492 | 40182 ft | 431 kts | 245° |
| 2026-04-22 02:00 | 27.91085 | -141.52698 | 40186 ft | 431 kts | 245° |
| 2026-04-22 02:00 | 27.88679 | -141.58907 | 40185 ft | 431 kts | 245° |
| 2026-04-22 02:01 | 27.86261 | -141.65137 | 40192 ft | 434 kts | 245° |
| 2026-04-22 02:01 | 27.83831 | -141.71389 | 40192 ft | 438 kts | 245° |
| 2026-04-22 02:02 | 27.81366 | -141.77719 | 40183 ft | 441 kts | 245° |
| 2026-04-22 02:02 | 27.78887 | -141.84074 | 40178 ft | 444 kts | 246° |
| 2026-04-22 02:03 | 27.76384 | -141.90481 | 40184 ft | 446 kts | 246° |
| 2026-04-22 02:03 | 27.73874 | -141.96898 | 40181 ft | 447 kts | 246° |
| 2026-04-22 02:04 | 27.70115 | -142.06485 | 40180 ft | 447 kts | 246° |
| 2026-04-22 02:05 | 27.67593 | -142.12905 | 40180 ft | 448 kts | 246° |
| 2026-04-22 02:05 | 27.65060 | -142.19342 | 40178 ft | 448 kts | 246° |
| 2026-04-22 02:06 | 27.62524 | -142.25777 | 40178 ft | 449 kts | 246° |
| 2026-04-22 02:06 | 27.59982 | -142.32213 | 40170 ft | 449 kts | 246° |
| 2026-04-22 02:07 | 27.57451 | -142.38613 | 40173 ft | 449 kts | 246° |
| 2026-04-22 02:07 | 27.54902 | -142.45050 | 40173 ft | 450 kts | 246° |
| 2026-04-22 02:08 | 27.52348 | -142.51489 | 40170 ft | 450 kts | 246° |
| 2026-04-22 02:08 | 27.49785 | -142.57938 | 40172 ft | 451 kts | 246° |
| 2026-04-22 02:09 | 27.47218 | -142.64386 | 40169 ft | 451 kts | 246° |
| 2026-04-22 02:09 | 27.44659 | -142.70807 | 40170 ft | 452 kts | 246° |
| 2026-04-22 02:10 | 27.42081 | -142.77263 | 40167 ft | 452 kts | 247° |
| 2026-04-22 02:10 | 27.39500 | -142.83716 | 40167 ft | 452 kts | 247° |
| 2026-04-22 02:11 | 27.36913 | -142.90172 | 40171 ft | 453 kts | 247° |
| 2026-04-22 02:11 | 27.34318 | -142.96640 | 40163 ft | 453 kts | 247° |
| 2026-04-22 02:12 | 27.31717 | -143.03110 | 40160 ft | 454 kts | 247° |
| 2026-04-22 02:12 | 27.29131 | -143.09535 | 40163 ft | 454 kts | 247° |
| 2026-04-22 02:13 | 27.26522 | -143.16005 | 40163 ft | 455 kts | 247° |
| 2026-04-22 02:13 | 27.23908 | -143.22478 | 40165 ft | 455 kts | 247° |
| 2026-04-22 02:14 | 27.21286 | -143.28960 | 40159 ft | 455 kts | 247° |
| 2026-04-22 02:14 | 27.18659 | -143.35445 | 40166 ft | 456 kts | 247° |
| 2026-04-22 02:15 | 27.16032 | -143.41918 | 40163 ft | 456 kts | 247° |
| 2026-04-22 02:15 | 27.13392 | -143.48414 | 40161 ft | 456 kts | 247° |
| 2026-04-22 02:16 | 27.10770 | -143.54854 | 40158 ft | 457 kts | 247° |
| 2026-04-22 02:16 | 27.08124 | -143.61344 | 40162 ft | 457 kts | 247° |
| 2026-04-22 02:17 | 27.05474 | -143.67832 | 40161 ft | 457 kts | 247° |
| 2026-04-22 02:17 | 27.02823 | -143.74312 | 40159 ft | 457 kts | 247° |
| 2026-04-22 02:18 | 27.00168 | -143.80793 | 40157 ft | 458 kts | 247° |
| 2026-04-22 02:18 | 26.97504 | -143.87286 | 40159 ft | 458 kts | 247° |
| 2026-04-22 02:19 | 26.94848 | -143.93748 | 40158 ft | 459 kts | 247° |
| 2026-04-22 02:19 | 26.92174 | -144.00242 | 40160 ft | 459 kts | 247° |
| 2026-04-22 02:20 | 26.89493 | -144.06745 | 40149 ft | 460 kts | 247° |
| 2026-04-22 02:20 | 26.86803 | -144.13260 | 40157 ft | 460 kts | 247° |
| 2026-04-22 02:21 | 26.84109 | -144.19772 | 40153 ft | 461 kts | 247° |
| 2026-04-22 02:21 | 26.81406 | -144.26297 | 40145 ft | 462 kts | 248° |
| 2026-04-22 02:22 | 26.78715 | -144.32782 | 40151 ft | 463 kts | 248° |
| 2026-04-22 02:22 | 26.75993 | -144.39332 | 40151 ft | 464 kts | 248° |
| 2026-04-22 02:23 | 26.73268 | -144.45878 | 40155 ft | 464 kts | 247° |
| 2026-04-22 02:23 | 26.70534 | -144.52436 | 40143 ft | 465 kts | 248° |
| 2026-04-22 02:24 | 26.67799 | -144.58989 | 40149 ft | 466 kts | 248° |
| 2026-04-22 02:24 | 26.65067 | -144.65518 | 40149 ft | 466 kts | 248° |
| 2026-04-22 02:25 | 26.62313 | -144.72093 | 40147 ft | 467 kts | 248° |
| 2026-04-22 02:25 | 26.59552 | -144.78670 | 40138 ft | 468 kts | 248° |
| 2026-04-22 02:26 | 26.56781 | -144.85264 | 40150 ft | 469 kts | 248° |
| 2026-04-22 02:26 | 26.54007 | -144.91859 | 40156 ft | 469 kts | 248° |
| 2026-04-22 02:27 | 26.51220 | -144.98471 | 40140 ft | 470 kts | 248° |
| 2026-04-22 02:27 | 26.48431 | -145.05075 | 40136 ft | 471 kts | 249° |
| 2026-04-22 02:28 | 26.45649 | -145.11656 | 40144 ft | 473 kts | 249° |
| 2026-04-22 02:28 | 26.42833 | -145.18304 | 40150 ft | 474 kts | 249° |
| 2026-04-22 02:29 | 26.40011 | -145.24958 | 40139 ft | 475 kts | 249° |
| 2026-04-22 02:29 | 26.37177 | -145.31628 | 40131 ft | 476 kts | 249° |
| 2026-04-22 02:30 | 26.34332 | -145.38313 | 40146 ft | 477 kts | 249° |
| 2026-04-22 02:30 | 26.31487 | -145.44987 | 40145 ft | 477 kts | 249° |
| 2026-04-22 02:31 | 26.28626 | -145.51688 | 40141 ft | 478 kts | 249° |
| 2026-04-22 02:31 | 26.25766 | -145.58377 | 40135 ft | 478 kts | 250° |
| 2026-04-22 02:32 | 26.22914 | -145.65038 | 40136 ft | 479 kts | 250° |
| 2026-04-22 02:32 | 26.20041 | -145.71737 | 40136 ft | 479 kts | 249° |
| 2026-04-22 02:33 | 26.17164 | -145.78434 | 40126 ft | 479 kts | 249° |
| 2026-04-22 02:33 | 26.14304 | -145.85080 | 40121 ft | 478 kts | 250° |
| 2026-04-22 02:34 | 26.11427 | -145.91757 | 40131 ft | 478 kts | 250° |
| 2026-04-22 02:34 | 26.08541 | -145.98445 | 40131 ft | 478 kts | 250° |
| 2026-04-22 02:35 | 26.05658 | -146.05117 | 40137 ft | 478 kts | 250° |
| 2026-04-22 02:35 | 26.02788 | -146.11749 | 40130 ft | 478 kts | 250° |
| 2026-04-22 02:36 | 25.99896 | -146.18420 | 40131 ft | 478 kts | 250° |
| 2026-04-22 02:36 | 25.97007 | -146.25077 | 40128 ft | 479 kts | 249° |
| 2026-04-22 02:37 | 25.94110 | -146.31747 | 40122 ft | 479 kts | 250° |
| 2026-04-22 02:37 | 25.91214 | -146.38405 | 40127 ft | 479 kts | 250° |
| 2026-04-22 02:38 | 25.88313 | -146.45068 | 40125 ft | 479 kts | 250° |
| 2026-04-22 02:38 | 25.85409 | -146.51727 | 40127 ft | 479 kts | 250° |
| 2026-04-22 02:39 | 25.82504 | -146.58377 | 40118 ft | 479 kts | 250° |
| 2026-04-22 02:39 | 25.79613 | -146.64986 | 40126 ft | 478 kts | 250° |
| 2026-04-22 02:40 | 25.76703 | -146.71626 | 40125 ft | 478 kts | 250° |
| 2026-04-22 02:40 | 25.73783 | -146.78281 | 40124 ft | 479 kts | 249° |
| 2026-04-22 02:41 | 25.70879 | -146.84888 | 40111 ft | 479 kts | 250° |
| 2026-04-22 02:41 | 25.67955 | -146.91531 | 40122 ft | 478 kts | 250° |
| 2026-04-22 02:42 | 25.65033 | -146.98158 | 40117 ft | 478 kts | 249° |
| 2026-04-22 02:42 | 25.62604 | -147.03661 | 40126 ft | 478 kts | 249° |
| 2026-04-22 02:43 | 25.59680 | -147.10278 | 40120 ft | 478 kts | 249° |
| 2026-04-22 02:43 | 25.56752 | -147.16891 | 40123 ft | 478 kts | 250° |
| 2026-04-22 02:44 | 25.53819 | -147.23506 | 40124 ft | 478 kts | 250° |
| 2026-04-22 02:44 | 25.50887 | -147.30107 | 40127 ft | 478 kts | 250° |
| 2026-04-22 02:45 | 25.47970 | -147.36669 | 40120 ft | 478 kts | 249° |
| 2026-04-22 02:45 | 25.45032 | -147.43263 | 40119 ft | 478 kts | 250° |
| 2026-04-22 02:46 | 25.42090 | -147.49861 | 40114 ft | 478 kts | 250° |
| 2026-04-22 02:46 | 25.39143 | -147.56459 | 40114 ft | 478 kts | 249° |
| 2026-04-22 02:47 | 25.36212 | -147.63009 | 40108 ft | 478 kts | 249° |
| 2026-04-22 02:47 | 25.33262 | -147.69594 | 40107 ft | 478 kts | 250° |
| 2026-04-22 02:48 | 25.30305 | -147.76184 | 40110 ft | 478 kts | 249° |
| 2026-04-22 02:48 | 25.27344 | -147.82773 | 40116 ft | 478 kts | 249° |
| 2026-04-22 02:49 | 25.24383 | -147.89355 | 40112 ft | 479 kts | 249° |
| 2026-04-22 02:49 | 25.21432 | -147.95902 | 40105 ft | 479 kts | 250° |
| 2026-04-22 02:50 | 25.18454 | -148.02500 | 40112 ft | 479 kts | 250° |
| 2026-04-22 02:50 | 25.15478 | -148.09085 | 40106 ft | 479 kts | 249° |
| 2026-04-22 02:51 | 25.12493 | -148.15678 | 40108 ft | 480 kts | 249° |
| 2026-04-22 02:51 | 25.09503 | -148.22272 | 40098 ft | 480 kts | 250° |
| 2026-04-22 02:52 | 25.06512 | -148.28861 | 40108 ft | 480 kts | 250° |
| 2026-04-22 02:52 | 25.03512 | -148.35460 | 40106 ft | 481 kts | 250° |
| 2026-04-22 02:53 | 25.00530 | -148.42009 | 40109 ft | 481 kts | 250° |
| 2026-04-22 02:53 | 24.97522 | -148.48605 | 40083 ft | 482 kts | 250° |
| 2026-04-22 02:54 | 24.94511 | -148.55198 | 40098 ft | 482 kts | 250° |
| 2026-04-22 02:54 | 24.91497 | -148.61790 | 40102 ft | 482 kts | 250° |
| 2026-04-22 02:55 | 24.88474 | -148.68390 | 40100 ft | 482 kts | 250° |
| 2026-04-22 02:55 | 24.85451 | -148.74982 | 40106 ft | 482 kts | 250° |
| 2026-04-22 02:56 | 24.82424 | -148.81572 | 40100 ft | 482 kts | 250° |
| 2026-04-22 02:56 | 24.79391 | -148.88167 | 40101 ft | 482 kts | 250° |
| 2026-04-22 02:57 | 24.76371 | -148.94721 | 40101 ft | 482 kts | 250° |
| 2026-04-22 02:57 | 24.73332 | -149.01309 | 40101 ft | 482 kts | 250° |
| 2026-04-22 02:58 | 24.70292 | -149.07889 | 40096 ft | 481 kts | 250° |
| 2026-04-22 02:58 | 24.67258 | -149.14448 | 40099 ft | 481 kts | 250° |
| 2026-04-22 02:59 | 24.64224 | -149.20996 | 40099 ft | 480 kts | 250° |
| 2026-04-22 02:59 | 24.61191 | -149.27536 | 40093 ft | 480 kts | 250° |
| 2026-04-22 03:00 | 24.58166 | -149.34048 | 40091 ft | 480 kts | 250° |
| 2026-04-22 03:00 | 24.55130 | -149.40574 | 40102 ft | 480 kts | 250° |
| 2026-04-22 03:01 | 24.52086 | -149.47105 | 40101 ft | 480 kts | 250° |
| 2026-04-22 03:01 | 24.49043 | -149.53630 | 40098 ft | 480 kts | 250° |
| 2026-04-22 03:02 | 24.45992 | -149.60158 | 40087 ft | 480 kts | 250° |
| 2026-04-22 03:02 | 24.42945 | -149.66670 | 40088 ft | 479 kts | 250° |
| 2026-04-22 03:03 | 24.39895 | -149.73181 | 40101 ft | 479 kts | 250° |
| 2026-04-22 03:03 | 24.36862 | -149.79646 | 40094 ft | 479 kts | 250° |
| 2026-04-22 03:04 | 24.33805 | -149.86154 | 40096 ft | 479 kts | 250° |
| 2026-04-22 03:04 | 24.30749 | -149.92649 | 40102 ft | 479 kts | 250° |
| 2026-04-22 03:05 | 24.27696 | -149.99128 | 40096 ft | 478 kts | 250° |
| 2026-04-22 03:05 | 24.24641 | -150.05603 | 40071 ft | 478 kts | 250° |
| 2026-04-22 03:06 | 24.21580 | -150.12083 | 40096 ft | 478 kts | 250° |
| 2026-04-22 03:06 | 24.18518 | -150.18557 | 40089 ft | 479 kts | 250° |
| 2026-04-22 03:07 | 24.15450 | -150.25034 | 40090 ft | 478 kts | 249° |
| 2026-04-22 03:07 | 24.12386 | -150.31491 | 40091 ft | 478 kts | 249° |
| 2026-04-22 03:08 | 24.09314 | -150.37958 | 40093 ft | 478 kts | 249° |
| 2026-04-22 03:08 | 24.06260 | -150.44379 | 40092 ft | 478 kts | 249° |
| 2026-04-22 03:09 | 24.03186 | -150.50833 | 40084 ft | 478 kts | 249° |
| 2026-04-22 03:09 | 24.00104 | -150.57293 | 40090 ft | 478 kts | 249° |
| 2026-04-22 03:10 | 23.97027 | -150.63736 | 40089 ft | 478 kts | 249° |
| 2026-04-22 03:10 | 23.93944 | -150.70183 | 40092 ft | 478 kts | 249° |
| 2026-04-22 03:11 | 23.90861 | -150.76621 | 40077 ft | 478 kts | 249° |
| 2026-04-22 03:11 | 23.87795 | -150.83013 | 40087 ft | 477 kts | 249° |
| 2026-04-22 03:12 | 23.84713 | -150.89432 | 40084 ft | 477 kts | 249° |
| 2026-04-22 03:12 | 23.80082 | -150.99061 | 40085 ft | 477 kts | 249° |
| 2026-04-22 03:13 | 23.76988 | -151.05483 | 40080 ft | 477 kts | 249° |
| 2026-04-22 03:13 | 23.73898 | -151.11888 | 40088 ft | 477 kts | 249° |
| 2026-04-22 03:14 | 23.70823 | -151.18252 | 40081 ft | 476 kts | 249° |
| 2026-04-22 03:14 | 23.67727 | -151.24653 | 40081 ft | 476 kts | 249° |
| 2026-04-22 03:15 | 23.64632 | -151.31044 | 40077 ft | 476 kts | 249° |
| 2026-04-22 03:15 | 23.61527 | -151.37447 | 40079 ft | 476 kts | 249° |
| 2026-04-22 03:16 | 23.58424 | -151.43835 | 40076 ft | 476 kts | 249° |
| 2026-04-22 03:16 | 23.55327 | -151.50204 | 40092 ft | 476 kts | 249° |
| 2026-04-22 03:17 | 23.52242 | -151.56541 | 40091 ft | 476 kts | 249° |
| 2026-04-22 03:17 | 23.49134 | -151.62916 | 40091 ft | 476 kts | 249° |
| 2026-04-22 03:18 | 23.46020 | -151.69294 | 40070 ft | 476 kts | 249° |
| 2026-04-22 03:18 | 23.42925 | -151.75626 | 40080 ft | 476 kts | 249° |
| 2026-04-22 03:19 | 23.39805 | -151.82001 | 40085 ft | 477 kts | 249° |
| 2026-04-22 03:19 | 23.36680 | -151.88379 | 40085 ft | 477 kts | 249° |
| 2026-04-22 03:20 | 23.33554 | -151.94749 | 40072 ft | 477 kts | 248° |
| 2026-04-22 03:20 | 23.30424 | -152.01118 | 40075 ft | 477 kts | 248° |
| 2026-04-22 03:21 | 23.27314 | -152.07440 | 40079 ft | 477 kts | 248° |
| 2026-04-22 03:21 | 23.24180 | -152.13803 | 40074 ft | 477 kts | 248° |
| 2026-04-22 03:22 | 23.21045 | -152.20157 | 40079 ft | 477 kts | 248° |
| 2026-04-22 03:22 | 23.17905 | -152.26517 | 40073 ft | 477 kts | 248° |
| 2026-04-22 03:23 | 23.14768 | -152.32859 | 40074 ft | 476 kts | 248° |
| 2026-04-22 03:23 | 23.11650 | -152.39158 | 40078 ft | 476 kts | 248° |
| 2026-04-22 03:24 | 23.08510 | -152.45492 | 40076 ft | 475 kts | 248° |
| 2026-04-22 03:24 | 23.05373 | -152.51814 | 40069 ft | 475 kts | 248° |
| 2026-04-22 03:25 | 23.02232 | -152.58135 | 40068 ft | 475 kts | 248° |
| 2026-04-22 03:25 | 22.99080 | -152.64432 | 40076 ft | 474 kts | 248° |
| 2026-04-22 03:26 | 22.95914 | -152.70731 | 40077 ft | 474 kts | 248° |
| 2026-04-22 03:26 | 22.92772 | -152.76978 | 40076 ft | 474 kts | 248° |
| 2026-04-22 03:27 | 22.89606 | -152.83271 | 40067 ft | 474 kts | 248° |
| 2026-04-22 03:27 | 22.86448 | -152.89541 | 40076 ft | 473 kts | 248° |
| 2026-04-22 03:28 | 22.83283 | -152.95819 | 40077 ft | 473 kts | 248° |
| 2026-04-22 03:28 | 22.80124 | -153.02076 | 40076 ft | 473 kts | 248° |
| 2026-04-22 03:29 | 22.77495 | -153.07278 | 40073 ft | 473 kts | 247° |
| 2026-04-22 03:29 | 22.73813 | -153.14553 | 40063 ft | 473 kts | 247° |
| 2026-04-22 03:30 | 22.71182 | -153.19744 | 40075 ft | 472 kts | 247° |
| 2026-04-22 03:30 | 22.68021 | -153.25975 | 40076 ft | 472 kts | 247° |
| 2026-04-22 03:31 | 22.64852 | -153.32215 | 40074 ft | 472 kts | 247° |
| 2026-04-22 03:31 | 22.61678 | -153.38457 | 40072 ft | 472 kts | 247° |
| 2026-04-22 03:32 | 22.58530 | -153.44640 | 40066 ft | 472 kts | 247° |
| 2026-04-22 03:32 | 22.55361 | -153.50857 | 40071 ft | 472 kts | 247° |
| 2026-04-22 03:33 | 22.52187 | -153.57076 | 40074 ft | 472 kts | 247° |
| 2026-04-22 03:33 | 22.49018 | -153.63279 | 40074 ft | 472 kts | 247° |
| 2026-04-22 03:34 | 22.45840 | -153.69492 | 40074 ft | 472 kts | 247° |
| 2026-04-22 03:34 | 22.42663 | -153.75696 | 40063 ft | 471 kts | 247° |
| 2026-04-22 03:35 | 22.39486 | -153.81892 | 40066 ft | 471 kts | 247° |
| 2026-04-22 03:35 | 22.35888 | -153.87818 | 40076 ft | 479 kts | 236° |
| 2026-04-22 03:36 | 22.31171 | -153.93007 | 40073 ft | 487 kts | 226° |
| 2026-04-22 03:36 | 22.25990 | -153.97744 | 40073 ft | 488 kts | 225° |
| 2026-04-22 03:37 | 22.20786 | -154.02464 | 40071 ft | 489 kts | 225° |
| 2026-04-22 03:37 | 22.15627 | -154.07190 | 40052 ft | 488 kts | 226° |
| 2026-04-22 03:38 | 22.10463 | -154.11947 | 40064 ft | 488 kts | 226° |
| 2026-04-22 03:38 | 22.05302 | -154.16705 | 40063 ft | 488 kts | 226° |
| 2026-04-22 03:39 | 22.00126 | -154.21470 | 40063 ft | 488 kts | 226° |
| 2026-04-22 03:39 | 21.94959 | -154.26220 | 40072 ft | 488 kts | 226° |
| 2026-04-22 03:40 | 21.89819 | -154.30941 | 40061 ft | 488 kts | 225° |
| 2026-04-22 03:40 | 21.84649 | -154.35683 | 40064 ft | 488 kts | 225° |
| 2026-04-22 03:41 | 21.79479 | -154.40421 | 40062 ft | 488 kts | 225° |
| 2026-04-22 03:41 | 21.74306 | -154.45157 | 40063 ft | 488 kts | 225° |
| 2026-04-22 03:42 | 21.69134 | -154.49888 | 40066 ft | 487 kts | 225° |
| 2026-04-22 03:42 | 21.63972 | -154.54605 | 40056 ft | 487 kts | 225° |
| 2026-04-22 03:43 | 21.58805 | -154.59322 | 40065 ft | 487 kts | 225° |
| 2026-04-22 03:43 | 21.53621 | -154.64051 | 39641 ft | 494 kts | 225° |
| 2026-04-22 03:44 | 21.51038 | -154.66408 | 38974 ft | 488 kts | 225° |
| 2026-04-22 03:44 | 21.48472 | -154.68740 | 38256 ft | 481 kts | 225° |
| 2026-04-22 03:44 | 21.45911 | -154.71069 | 37491 ft | 481 kts | 225° |
| 2026-04-22 03:44 | 21.43362 | -154.73389 | 36815 ft | 480 kts | 225° |
| 2026-04-22 03:45 | 21.40828 | -154.75692 | 36328 ft | 475 kts | 225° |
| 2026-04-22 03:45 | 21.38312 | -154.77979 | 35823 ft | 471 kts | 225° |
| 2026-04-22 03:45 | 21.35819 | -154.80244 | 35333 ft | 468 kts | 225° |
| 2026-04-22 03:45 | 21.33342 | -154.82494 | 34833 ft | 465 kts | 225° |
| 2026-04-22 03:46 | 21.30907 | -154.84706 | 34353 ft | 463 kts | 225° |
| 2026-04-22 03:46 | 21.28454 | -154.86932 | 33808 ft | 461 kts | 225° |
| 2026-04-22 03:46 | 21.26014 | -154.89146 | 33283 ft | 458 kts | 224° |
| 2026-04-22 03:46 | 21.23587 | -154.91346 | 32754 ft | 455 kts | 224° |
| 2026-04-22 03:47 | 21.21175 | -154.93533 | 32253 ft | 452 kts | 224° |
| 2026-04-22 03:47 | 21.18781 | -154.95702 | 31759 ft | 450 kts | 224° |
| 2026-04-22 03:47 | 21.16394 | -154.97863 | 31269 ft | 447 kts | 224° |
| 2026-04-22 03:47 | 21.14024 | -155.00008 | 30752 ft | 445 kts | 224° |
| 2026-04-22 03:48 | 21.11666 | -155.02142 | 30282 ft | 443 kts | 224° |
| 2026-04-22 03:48 | 21.09315 | -155.04269 | 29717 ft | 441 kts | 224° |
| 2026-04-22 03:48 | 21.06976 | -155.06383 | 29148 ft | 439 kts | 224° |
| 2026-04-22 03:48 | 21.04645 | -155.08490 | 28582 ft | 438 kts | 224° |
| 2026-04-22 03:49 | 21.02324 | -155.10587 | 28044 ft | 436 kts | 224° |
| 2026-04-22 03:49 | 21.00012 | -155.12674 | 27504 ft | 434 kts | 224° |
| 2026-04-22 03:49 | 20.97736 | -155.14728 | 26990 ft | 432 kts | 224° |
| 2026-04-22 03:49 | 20.95443 | -155.16797 | 26458 ft | 429 kts | 224° |
| 2026-04-22 03:50 | 20.93198 | -155.18818 | 25920 ft | 414 kts | 223° |
| 2026-04-22 03:50 | 20.91015 | -155.20781 | 25430 ft | 407 kts | 224° |
| 2026-04-22 03:50 | 20.88852 | -155.22731 | 24937 ft | 408 kts | 223° |
| 2026-04-22 03:50 | 20.86681 | -155.24689 | 24428 ft | 409 kts | 223° |
| 2026-04-22 03:51 | 20.84505 | -155.26651 | 23930 ft | 409 kts | 223° |
| 2026-04-22 03:51 | 20.82325 | -155.28615 | 23396 ft | 410 kts | 223° |
| 2026-04-22 03:51 | 20.80141 | -155.30580 | 22838 ft | 410 kts | 223° |
| 2026-04-22 03:51 | 20.77964 | -155.32537 | 22346 ft | 408 kts | 223° |
| 2026-04-22 03:52 | 20.75795 | -155.34486 | 21840 ft | 406 kts | 223° |
| 2026-04-22 03:52 | 20.73644 | -155.36417 | 21349 ft | 397 kts | 223° |
| 2026-04-22 03:52 | 20.71563 | -155.38281 | 20880 ft | 382 kts | 223° |
| 2026-04-22 03:52 | 20.69588 | -155.40051 | 20440 ft | 370 kts | 223° |
| 2026-04-22 03:53 | 20.67649 | -155.41790 | 19997 ft | 361 kts | 223° |
| 2026-04-22 03:53 | 20.65722 | -155.43521 | 19595 ft | 362 kts | 223° |
| 2026-04-22 03:53 | 20.63794 | -155.45254 | 19159 ft | 364 kts | 223° |
| 2026-04-22 03:53 | 20.61854 | -155.46997 | 18712 ft | 363 kts | 223° |
| 2026-04-22 03:54 | 20.59944 | -155.48708 | 18258 ft | 352 kts | 223° |
| 2026-04-22 03:54 | 20.58094 | -155.50364 | 17773 ft | 344 kts | 223° |
| 2026-04-22 03:54 | 20.56255 | -155.52012 | 17351 ft | 346 kts | 223° |
| 2026-04-22 03:54 | 20.54408 | -155.53669 | 16926 ft | 347 kts | 223° |
| 2026-04-22 03:55 | 20.52553 | -155.55331 | 16464 ft | 349 kts | 223° |
| 2026-04-22 03:55 | 20.50684 | -155.57005 | 16022 ft | 351 kts | 223° |
| 2026-04-22 03:55 | 20.48837 | -155.58658 | 15585 ft | 352 kts | 222° |
| 2026-04-22 03:55 | 20.46948 | -155.60347 | 15118 ft | 354 kts | 222° |
| 2026-04-22 03:56 | 20.45056 | -155.62039 | 14656 ft | 353 kts | 222° |
| 2026-04-22 03:56 | 20.43201 | -155.63694 | 14181 ft | 341 kts | 222° |
| 2026-04-22 03:56 | 20.41412 | -155.65290 | 13716 ft | 331 kts | 222° |
| 2026-04-22 03:56 | 20.39669 | -155.66846 | 13227 ft | 321 kts | 222° |
| 2026-04-22 03:57 | 20.37961 | -155.68371 | 12798 ft | 322 kts | 222° |
| 2026-04-22 03:57 | 20.36234 | -155.69915 | 12360 ft | 324 kts | 222° |
| 2026-04-22 03:57 | 20.34499 | -155.71465 | 11907 ft | 327 kts | 221° |
| 2026-04-22 03:57 | 20.32754 | -155.73022 | 11459 ft | 329 kts | 222° |
| 2026-04-22 03:58 | 20.30993 | -155.74592 | 10999 ft | 331 kts | 221° |
| 2026-04-22 03:58 | 20.29216 | -155.76177 | 10541 ft | 334 kts | 221° |
| 2026-04-22 03:58 | 20.27454 | -155.77747 | 10353 ft | 327 kts | 221° |
| 2026-04-22 03:58 | 20.25749 | -155.79267 | 10201 ft | 319 kts | 221° |
| 2026-04-22 03:59 | 20.24068 | -155.80763 | 10028 ft | 311 kts | 221° |
| 2026-04-22 03:59 | 20.22427 | -155.82223 | 9790 ft | 300 kts | 221° |
| 2026-04-22 03:59 | 20.20858 | -155.83619 | 9372 ft | 289 kts | 221° |
| 2026-04-22 03:59 | 20.19336 | -155.84981 | 8965 ft | 281 kts | 221° |
| 2026-04-22 04:00 | 20.17871 | -155.86312 | 8587 ft | 272 kts | 221° |
| 2026-04-22 04:00 | 20.16455 | -155.87603 | 8258 ft | 265 kts | 221° |
| 2026-04-22 04:00 | 20.15050 | -155.88883 | 7943 ft | 267 kts | 221° |
| 2026-04-22 04:00 | 20.13628 | -155.90177 | 7612 ft | 271 kts | 221° |
| 2026-04-22 04:01 | 20.12190 | -155.91484 | 7279 ft | 272 kts | 221° |
| 2026-04-22 04:01 | 20.10758 | -155.92786 | 6950 ft | 271 kts | 220° |
| 2026-04-22 04:01 | 20.09319 | -155.94093 | 6618 ft | 271 kts | 221° |
| 2026-04-22 04:01 | 20.07883 | -155.95396 | 6274 ft | 271 kts | 220° |
| 2026-04-22 04:02 | 20.06451 | -155.96694 | 5933 ft | 269 kts | 220° |
| 2026-04-22 04:02 | 20.05076 | -155.97942 | 5592 ft | 258 kts | 220° |
| 2026-04-22 04:02 | 20.03740 | -155.99155 | 5273 ft | 247 kts | 220° |
| 2026-04-22 04:02 | 20.02457 | -156.00319 | 4968 ft | 237 kts | 221° |
| 2026-04-22 04:03 | 20.01217 | -156.01444 | 4684 ft | 233 kts | 220° |
| 2026-04-22 04:03 | 19.99845 | -156.02260 | 4446 ft | 226 kts | 191° |
| 2026-04-22 04:03 | 19.98279 | -156.02403 | 4195 ft | 229 kts | 183° |
| 2026-04-22 04:03 | 19.96677 | -156.02532 | 3893 ft | 231 kts | 184° |
| 2026-04-22 04:04 | 19.95108 | -156.02668 | 3618 ft | 222 kts | 184° |
| 2026-04-22 04:04 | 19.93607 | -156.02800 | 3355 ft | 212 kts | 184° |
| 2026-04-22 04:04 | 19.92141 | -156.02931 | 3104 ft | 210 kts | 184° |
| 2026-04-22 04:04 | 19.90691 | -156.03061 | 2854 ft | 208 kts | 184° |
| 2026-04-22 04:05 | 19.89251 | -156.03190 | 2625 ft | 206 kts | 184° |
| 2026-04-22 04:05 | 19.87822 | -156.03318 | 2374 ft | 206 kts | 184° |
| 2026-04-22 04:05 | 19.86415 | -156.03444 | 2148 ft | 205 kts | 184° |
| 2026-04-22 04:05 | 19.84993 | -156.03571 | 1896 ft | 205 kts | 183° |
| 2026-04-22 04:06 | 19.83574 | -156.03698 | 1619 ft | 202 kts | 184° |
| 2026-04-22 04:06 | 19.82218 | -156.03819 | 1366 ft | 189 kts | 183° |
| 2026-04-22 04:06 | 19.80973 | -156.03931 | 1132 ft | 172 kts | 183° |
| 2026-04-22 04:06 | 19.79838 | -156.04031 | 923 ft | 156 kts | 183° |
| 2026-04-22 04:07 | 19.78764 | -156.04123 | 730 ft | 156 kts | 184° |
| 2026-04-22 04:07 | 19.77671 | -156.04228 | 557 ft | 158 kts | 186° |
| 2026-04-22 04:07 | 19.76590 | -156.04328 | 365 ft | 154 kts | 185° |
| 2026-04-22 04:07 | 19.75530 | -156.04420 | 144 ft | 150 kts | 185° |
| 2026-04-22 04:08 | 19.74537 | -156.04511 | 51 ft | 133 kts | 186° |
| 2026-04-22 04:08 | 19.73779 | -156.04577 | 50 ft | 83 kts | 185° |
| 2026-04-22 04:08 | 19.73390 | -156.04609 | 50 ft | 29 kts | 184° |
| 2026-04-22 04:08 | 19.73222 | -156.04624 | 48 ft | 24 kts | 185° |
| 2026-04-22 04:09 | 19.73057 | -156.04638 | 51 ft | 24 kts | 185° |
| 2026-04-22 04:09 | 19.72891 | -156.04639 | 49 ft | 24 kts | 172° |
| 2026-04-22 04:09 | 19.72734 | -156.04588 | 46 ft | 20 kts | 155° |
| 2026-04-22 04:09 | 19.72661 | -156.04525 | 48 ft | 13 kts | 113° |
| 2026-04-22 04:10 | 19.72652 | -156.04450 | 50 ft | 9 kts | 81° |
| 2026-04-22 04:10 | 19.72700 | -156.04415 | 47 ft | 10 kts | 12° |
| 2026-04-22 04:10 | 19.72789 | -156.04405 | 49 ft | 15 kts | 4° |
| 2026-04-22 04:10 | 19.72893 | -156.04397 | 50 ft | 15 kts | 4° |
| 2026-04-22 04:11 | 19.72998 | -156.04389 | 51 ft | 15 kts | 5° |
| 2026-04-22 04:11 | 19.73102 | -156.04380 | 48 ft | 15 kts | 5° |
| 2026-04-22 04:11 | 19.73206 | -156.04371 | 50 ft | 15 kts | 5° |
| 2026-04-22 04:11 | 19.73310 | -156.04361 | 51 ft | 15 kts | 4° |
| 2026-04-22 04:12 | 19.73414 | -156.04352 | 52 ft | 15 kts | 5° |
| 2026-04-22 04:12 | 19.73518 | -156.04343 | 50 ft | 15 kts | 4° |
| 2026-04-22 04:12 | 19.73622 | -156.04335 | 49 ft | 15 kts | 5° |
| 2026-04-22 04:12 | 19.73726 | -156.04324 | 48 ft | 15 kts | 6° |
| 2026-04-22 04:13 | 19.73809 | -156.04315 | 47 ft | 9 kts | 8° |
| 2026-04-22 04:13 | 19.73843 | -156.04295 | 47 ft | 3 kts | 68° |
| 2026-04-22 04:13 | 19.73834 | -156.04276 | 47 ft | 3 kts | 126° |
| 2026-04-22 04:13 | 19.73822 | -156.04260 | 47 ft | 3 kts | 130° |
| 2026-04-22 04:14 | 19.73807 | -156.04244 | 47 ft | 3 kts | 135° |
| 2026-04-22 04:14 | 19.73792 | -156.04229 | 48 ft | 3 kts | 136° |
| 2026-04-22 04:14 | 19.73778 | -156.04214 | 49 ft | 3 kts | 136° |
| 2026-04-22 04:14 | 19.73767 | -156.04203 | 49 ft | 1 kts | 136° |
| 2026-04-22 04:15 | 19.73766 | -156.04203 | 49 ft | 0 kts | 136° |